Time;durP1;ratioP1;P1;durP2;ratioP2;P2;SDS_P1;SDS_P2;PMS_P1;PMS_P2;Temp;Humidity;BMP_temperature;BMP_pressure;BME280_temperature;BME280_humidity;BME280_pressure;Samples;Min_cycle;Max_cycle;Signal;HPM_P1;HPM_P2
2023/09/21 00:00:14;;;;;;;4.18;1.83;;;;;;;;;;5048930;28;20029;-58
2023/09/21 00:02:44;;;;;;;4.03;2.10;;;;;;;;;;5045841;28;20037;-55
2023/09/21 00:05:11;;;;;;;3.20;1.83;;;;;;;;;;5049171;28;20106;-54
2023/09/21 00:07:36;;;;;;;3.10;1.92;;;;;;;;;;5051464;28;20029;-53
2023/09/21 00:10:06;;;;;;;3.47;1.80;;;;;;;;;;5049020;28;20127;-57
2023/09/21 00:12:34;;;;;;;5.70;1.85;;;;;;;;;;5050539;28;20041;-57
2023/09/21 00:15:04;;;;;;;2.95;1.75;;;;;;;;;;5032482;28;20538;-57
2023/09/21 00:17:32;;;;;;;2.83;2.10;;;;;;;;;;5049652;28;20053;-52
2023/09/21 00:19:58;;;;;;;5.15;1.95;;;;;;;;;;5042591;28;20290;-56
2023/09/21 00:22:25;;;;;;;3.40;2.00;;;;;;;;;;5050459;28;20102;-56
2023/09/21 00:24:52;;;;;;;3.35;1.90;;;;;;;;;;5035845;28;20061;-55
2023/09/21 00:27:17;;;;;;;2.75;1.80;;;;;;;;;;5047609;28;20085;-55
2023/09/21 00:29:43;;;;;;;4.43;1.98;;;;;;;;;;5050106;28;20033;-54
2023/09/21 00:32:08;;;;;;;5.55;1.90;;;;;;;;;;5039840;28;20102;-56
2023/09/21 00:34:35;;;;;;;2.42;1.70;;;;;;;;;;5030661;28;20079;-55
2023/09/21 00:37:00;;;;;;;2.80;1.80;;;;;;;;;;5048275;28;20064;-57
2023/09/21 00:39:26;;;;;;;3.38;1.70;;;;;;;;;;5050130;28;20335;-53
2023/09/21 00:41:51;;;;;;;3.60;1.73;;;;;;;;;;5048194;28;20037;-55
2023/09/21 00:44:18;;;;;;;4.40;1.88;;;;;;;;;;5048761;28;20504;-54
2023/09/21 00:46:44;;;;;;;3.40;1.90;;;;;;;;;;5048233;28;20021;-53
2023/09/21 00:49:11;;;;;;;3.33;2.08;;;;;;;;;;5051107;28;20456;-54
2023/09/21 00:51:38;;;;;;;3.92;2.20;;;;;;;;;;5049975;28;20108;-54
2023/09/21 00:54:09;;;;;;;2.83;1.60;;;;;;;;;;5033528;28;20032;-55
2023/09/21 00:56:38;;;;;;;2.97;1.90;;;;;;;;;;5039198;28;20029;-54
2023/09/21 00:59:05;;;;;;;4.68;2.00;;;;;;;;;;5052719;28;20029;-56
2023/09/21 01:01:33;;;;;;;7.22;1.70;;;;;;;;;;5049474;28;20028;-55
2023/09/21 01:04:01;;;;;;;2.58;1.70;;;;;;;;;;5047477;28;20045;-55
2023/09/21 01:06:27;;;;;;;2.60;1.92;;;;;;;;;;5051458;28;20028;-54
2023/09/21 01:08:53;;;;;;;2.63;1.75;;;;;;;;;;5053072;28;20029;-55
2023/09/21 01:11:19;;;;;;;2.70;1.90;;;;;;;;;;5049281;28;20106;-56
2023/09/21 01:13:47;;;;;;;3.25;2.00;;;;;;;;;;5052116;28;20040;-57
2023/09/21 01:16:15;;;;;;;6.53;2.15;;;;;;;;;;5050434;28;20033;-54
2023/09/21 01:18:41;;;;;;;2.55;1.75;;;;;;;;;;5048069;28;20037;-57
2023/09/21 01:21:13;;;;;;;3.42;2.00;;;;;;;;;;5052344;28;20091;-54
2023/09/21 01:23:42;;;;;;;3.13;1.90;;;;;;;;;;5049506;28;20032;-54
2023/09/21 01:26:08;;;;;;;5.80;2.47;;;;;;;;;;5052771;28;20025;-58
2023/09/21 01:28:33;;;;;;;4.00;2.05;;;;;;;;;;5051642;28;20087;-55
2023/09/21 01:31:00;;;;;;;3.78;1.70;;;;;;;;;;5051462;28;20032;-54
2023/09/21 01:33:27;;;;;;;2.20;1.42;;;;;;;;;;5049314;28;20534;-55
2023/09/21 01:35:52;;;;;;;3.47;1.83;;;;;;;;;;5042216;28;20036;-54
2023/09/21 01:38:19;;;;;;;7.07;1.90;;;;;;;;;;5052454;28;20091;-56
2023/09/21 01:40:46;;;;;;;3.67;1.73;;;;;;;;;;5051502;28;20116;-54
2023/09/21 01:43:14;;;;;;;3.45;1.85;;;;;;;;;;5044061;28;20481;-54
2023/09/21 01:45:40;;;;;;;3.45;1.77;;;;;;;;;;5048763;28;20445;-56
2023/09/21 01:48:10;;;;;;;3.53;1.75;;;;;;;;;;5051016;28;20063;-54
2023/09/21 01:50:41;;;;;;;3.05;1.65;;;;;;;;;;5054066;28;20059;-54
2023/09/21 01:53:09;;;;;;;3.25;2.00;;;;;;;;;;5052710;28;20454;-54
2023/09/21 01:55:35;;;;;;;2.83;1.60;;;;;;;;;;5050734;28;20067;-52
2023/09/21 01:58:01;;;;;;;4.57;1.90;;;;;;;;;;5050070;28;20033;-56
2023/09/21 02:00:29;;;;;;;3.25;1.80;;;;;;;;;;5047213;28;20570;-57
2023/09/21 02:02:55;;;;;;;5.97;1.92;;;;;;;;;;5052790;28;20037;-55
2023/09/21 02:05:21;;;;;;;3.25;1.90;;;;;;;;;;5045881;28;20029;-54
2023/09/21 02:07:47;;;;;;;3.20;1.80;;;;;;;;;;5049494;28;20090;-50
2023/09/21 02:10:17;;;;;;;3.78;1.83;;;;;;;;;;5050300;28;20035;-55
2023/09/21 02:13:05;;;;;;;4.03;1.90;;;;;;;;;;5053094;28;20029;-55
2023/09/21 02:15:34;;;;;;;4.45;1.92;;;;;;;;;;5048838;28;20025;-55
2023/09/21 02:18:02;;;;;;;3.42;1.80;;;;;;;;;;5051440;28;20041;-55
2023/09/21 02:20:32;;;;;;;3.47;1.90;;;;;;;;;;5049204;28;20037;-55
2023/09/21 02:23:00;;;;;;;3.58;1.90;;;;;;;;;;5044628;28;20033;-55
2023/09/21 02:25:27;;;;;;;1.52;1.42;;;;;;;;;;5034401;28;20040;-53
2023/09/21 02:27:53;;;;;;;2.40;1.80;;;;;;;;;;5038127;28;20035;-52
2023/09/21 02:30:21;;;;;;;2.85;1.70;;;;;;;;;;5049122;28;20111;-56
2023/09/21 02:32:51;;;;;;;3.03;1.80;;;;;;;;;;5052886;28;20040;-55
2023/09/21 02:35:22;;;;;;;3.22;1.90;;;;;;;;;;5041308;28;20029;-53
2023/09/21 02:37:49;;;;;;;2.92;1.70;;;;;;;;;;5052257;28;20175;-56
2023/09/21 02:40:17;;;;;;;2.97;1.60;;;;;;;;;;5050427;28;20033;-56
2023/09/21 02:42:44;;;;;;;3.53;1.85;;;;;;;;;;5051601;28;20048;-55
2023/09/21 02:45:13;;;;;;;2.70;1.73;;;;;;;;;;5050469;28;20066;-57
2023/09/21 02:47:40;;;;;;;2.35;1.70;;;;;;;;;;5045883;28;20045;-54
2023/09/21 02:50:14;;;;;;;3.42;1.60;;;;;;;;;;5032855;28;20108;-55
2023/09/21 02:52:54;;;;;;;2.92;1.77;;;;;;;;;;5043171;28;20033;-56
2023/09/21 02:55:20;;;;;;;2.83;1.90;;;;;;;;;;5050625;28;20036;-55
2023/09/21 02:57:55;;;;;;;2.65;1.70;;;;;;;;;;5051706;28;20738;-56
2023/09/21 03:00:29;;;;;;;3.33;1.70;;;;;;;;;;5050191;28;20051;-53
2023/09/21 03:02:56;;;;;;;2.92;1.92;;;;;;;;;;5049358;28;20395;-57
2023/09/21 03:05:25;;;;;;;3.35;2.00;;;;;;;;;;5043378;28;20037;-53
2023/09/21 03:07:51;;;;;;;2.95;1.80;;;;;;;;;;5041557;28;20036;-55
2023/09/21 03:10:17;;;;;;;3.10;1.90;;;;;;;;;;5049434;28;20029;-56
2023/09/21 03:12:47;;;;;;;3.67;1.80;;;;;;;;;;5049296;28;20076;-54
2023/09/21 03:15:14;;;;;;;4.55;1.80;;;;;;;;;;5051949;28;20095;-60
2023/09/21 03:17:43;;;;;;;4.72;1.80;;;;;;;;;;5047408;28;20053;-52
2023/09/21 03:20:12;;;;;;;3.50;1.90;;;;;;;;;;5050596;28;20098;-55
2023/09/21 03:22:38;;;;;;;2.63;1.70;;;;;;;;;;5048265;28;20035;-56
2023/09/21 03:25:11;;;;;;;3.08;1.75;;;;;;;;;;5039268;28;20025;-52
2023/09/21 03:27:40;;;;;;;4.18;1.63;;;;;;;;;;5050189;28;20093;-57
2023/09/21 03:30:10;;;;;;;2.53;1.70;;;;;;;;;;5051279;28;20032;-55
2023/09/21 03:32:37;;;;;;;2.90;1.80;;;;;;;;;;5049219;28;20024;-55
2023/09/21 03:35:03;;;;;;;4.30;1.80;;;;;;;;;;5047612;28;20505;-56
2023/09/21 03:37:31;;;;;;;2.53;1.77;;;;;;;;;;5039828;28;20059;-56
2023/09/21 03:39:57;;;;;;;3.10;1.67;;;;;;;;;;5050814;28;20441;-54
2023/09/21 03:42:23;;;;;;;3.35;2.00;;;;;;;;;;5046592;28;20037;-53
2023/09/21 03:44:48;;;;;;;2.85;1.75;;;;;;;;;;5039783;28;20056;-55
2023/09/21 03:47:17;;;;;;;4.43;1.80;;;;;;;;;;5050097;28;20045;-57
2023/09/21 03:49:45;;;;;;;2.92;1.80;;;;;;;;;;5049938;28;20033;-55
2023/09/21 03:52:15;;;;;;;2.95;1.80;;;;;;;;;;5051529;28;20029;-57
2023/09/21 03:54:44;;;;;;;3.17;1.83;;;;;;;;;;5048493;28;20673;-56
2023/09/21 03:57:11;;;;;;;5.47;1.92;;;;;;;;;;5051446;28;20033;-56
2023/09/21 03:59:37;;;;;;;4.07;1.88;;;;;;;;;;5045893;28;20060;-53
2023/09/21 04:02:03;;;;;;;5.38;1.85;;;;;;;;;;5048480;28;20067;-56
2023/09/21 04:04:30;;;;;;;3.83;1.65;;;;;;;;;;5045657;28;20100;-59
2023/09/21 04:06:56;;;;;;;3.00;1.90;;;;;;;;;;5045648;28;20033;-53
2023/09/21 04:09:22;;;;;;;4.10;1.88;;;;;;;;;;5045520;28;20033;-55
2023/09/21 04:11:48;;;;;;;4.68;2.10;;;;;;;;;;5051338;28;20454;-53
2023/09/21 04:14:13;;;;;;;2.95;1.85;;;;;;;;;;5050909;28;20040;-56
2023/09/21 04:16:39;;;;;;;3.50;1.90;;;;;;;;;;5049188;28;20266;-54
2023/09/21 04:19:10;;;;;;;3.90;1.90;;;;;;;;;;5046988;28;20033;-56
2023/09/21 04:21:36;;;;;;;4.28;2.10;;;;;;;;;;5048039;28;20945;-55
2023/09/21 04:24:02;;;;;;;3.53;1.80;;;;;;;;;;5043981;28;20037;-54
2023/09/21 04:26:28;;;;;;;5.03;2.00;;;;;;;;;;5041077;28;20386;-54
2023/09/21 04:28:54;;;;;;;5.25;1.98;;;;;;;;;;5047854;28;20025;-58
2023/09/21 04:31:19;;;;;;;4.82;1.95;;;;;;;;;;5046289;28;20428;-55
2023/09/21 04:33:45;;;;;;;4.13;2.42;;;;;;;;;;5053455;28;20128;-55
2023/09/21 04:36:10;;;;;;;4.20;2.22;;;;;;;;;;5053211;28;20434;-55
2023/09/21 04:38:37;;;;;;;4.05;2.13;;;;;;;;;;5043193;28;20929;-54
2023/09/21 04:41:04;;;;;;;3.35;1.85;;;;;;;;;;5055657;28;20036;-56
2023/09/21 04:43:30;;;;;;;4.38;2.00;;;;;;;;;;5054138;28;20028;-54
2023/09/21 04:45:56;;;;;;;3.50;2.00;;;;;;;;;;5054858;28;20029;-55
2023/09/21 04:48:21;;;;;;;4.85;1.90;;;;;;;;;;5054216;28;20021;-55
2023/09/21 04:50:48;;;;;;;4.63;2.28;;;;;;;;;;5055060;28;20025;-55
2023/09/21 04:53:15;;;;;;;2.58;1.80;;;;;;;;;;5054573;28;20068;-54
2023/09/21 04:55:41;;;;;;;4.90;2.00;;;;;;;;;;5039591;28;20049;-56
2023/09/21 04:58:07;;;;;;;5.00;1.80;;;;;;;;;;5035939;28;20068;-56
2023/09/21 05:00:32;;;;;;;3.05;2.05;;;;;;;;;;5046090;28;20028;-55
2023/09/21 05:02:58;;;;;;;3.92;1.98;;;;;;;;;;5055081;28;20119;-54
2023/09/21 05:05:26;;;;;;;7.22;1.88;;;;;;;;;;5053625;28;20056;-54
2023/09/21 05:07:52;;;;;;;2.72;1.85;;;;;;;;;;5048777;28;20041;-54
2023/09/21 05:10:18;;;;;;;3.60;1.70;;;;;;;;;;5054442;28;20115;-54
2023/09/21 05:12:43;;;;;;;3.53;1.88;;;;;;;;;;5053362;28;20032;-54
2023/09/21 05:15:13;;;;;;;4.30;2.20;;;;;;;;;;5054374;28;20028;-53
2023/09/21 05:17:39;;;;;;;3.22;1.90;;;;;;;;;;5052387;28;20123;-53
2023/09/21 05:20:05;;;;;;;2.67;1.92;;;;;;;;;;5054567;28;20436;-55
2023/09/21 05:22:32;;;;;;;4.13;2.10;;;;;;;;;;5053591;28;20041;-55
2023/09/21 05:24:59;;;;;;;3.05;1.80;;;;;;;;;;5052380;28;20021;-57
2023/09/21 05:27:24;;;;;;;4.35;2.00;;;;;;;;;;5048692;28;20705;-55
2023/09/21 05:29:49;;;;;;;3.13;2.00;;;;;;;;;;5051655;28;20025;-53
2023/09/21 05:32:15;;;;;;;3.17;2.03;;;;;;;;;;5037154;28;20116;-56
2023/09/21 05:34:40;;;;;;;5.00;1.95;;;;;;;;;;5032575;28;20040;-56
2023/09/21 05:37:07;;;;;;;6.25;2.10;;;;;;;;;;5033736;28;20026;-57
2023/09/21 05:39:32;;;;;;;3.60;2.17;;;;;;;;;;5052923;28;20162;-57
2023/09/21 05:41:58;;;;;;;4.47;2.20;;;;;;;;;;5053252;28;20112;-57
2023/09/21 05:44:25;;;;;;;4.25;2.05;;;;;;;;;;5053193;28;20033;-58
2023/09/21 05:46:52;;;;;;;4.70;2.30;;;;;;;;;;5053955;28;20041;-57
2023/09/21 05:49:23;;;;;;;4.88;1.98;;;;;;;;;;5053646;28;20033;-56
2023/09/21 05:51:52;;;;;;;3.75;2.33;;;;;;;;;;5053612;28;20032;-54
2023/09/21 05:54:25;;;;;;;6.53;2.35;;;;;;;;;;5051565;28;20258;-54
2023/09/21 05:56:51;;;;;;;4.60;2.20;;;;;;;;;;5053705;28;20029;-56
2023/09/21 05:59:17;;;;;;;5.60;2.30;;;;;;;;;;5053789;28;20079;-57
2023/09/21 06:01:43;;;;;;;3.42;2.00;;;;;;;;;;5051995;28;20508;-55
2023/09/21 06:04:12;;;;;;;3.35;1.90;;;;;;;;;;5053066;28;20115;-55
2023/09/21 06:06:41;;;;;;;4.05;2.00;;;;;;;;;;5052606;28;20029;-54
2023/09/21 06:09:08;;;;;;;4.25;2.13;;;;;;;;;;5048691;28;20025;-55
2023/09/21 06:11:33;;;;;;;2.92;2.05;;;;;;;;;;5052497;28;20083;-54
2023/09/21 06:13:59;;;;;;;3.78;2.10;;;;;;;;;;5053089;28;20033;-54
2023/09/21 06:16:25;;;;;;;5.07;1.88;;;;;;;;;;5052604;28;20108;-55
2023/09/21 06:18:50;;;;;;;6.05;2.20;;;;;;;;;;5053194;28;20029;-55
2023/09/21 06:21:16;;;;;;;4.13;2.05;;;;;;;;;;5053206;28;20367;-54
2023/09/21 06:23:44;;;;;;;4.00;1.90;;;;;;;;;;5049488;28;20476;-58
2023/09/21 06:26:14;;;;;;;4.72;2.40;;;;;;;;;;5052996;28;20071;-60
2023/09/21 06:28:43;;;;;;;4.25;2.38;;;;;;;;;;5034366;28;20059;-56
2023/09/21 06:31:10;;;;;;;5.72;2.00;;;;;;;;;;5046990;28;20036;-57
2023/09/21 06:33:35;;;;;;;6.38;2.08;;;;;;;;;;5050492;28;20116;-57
2023/09/21 06:36:01;;;;;;;3.75;2.20;;;;;;;;;;5051334;28;20068;-57
2023/09/21 06:38:26;;;;;;;3.70;2.05;;;;;;;;;;5049954;28;20108;-56
2023/09/21 06:40:51;;;;;;;18.83;2.60;;;;;;;;;;5043836;28;20478;-58
2023/09/21 06:43:17;;;;;;;4.25;2.08;;;;;;;;;;5052385;28;20035;-58
2023/09/21 06:45:42;;;;;;;4.18;2.13;;;;;;;;;;5050494;28;20025;-54
2023/09/21 06:48:11;;;;;;;3.80;2.17;;;;;;;;;;5050826;28;20433;-55
2023/09/21 06:50:40;;;;;;;7.38;2.30;;;;;;;;;;5051865;28;20484;-56
2023/09/21 06:53:08;;;;;;;4.63;2.30;;;;;;;;;;5052465;28;20025;-56
2023/09/21 06:55:34;;;;;;;6.30;2.20;;;;;;;;;;5051982;28;20158;-58
2023/09/21 06:58:03;;;;;;;5.85;2.10;;;;;;;;;;5048584;28;20068;-57
2023/09/21 07:00:28;;;;;;;4.15;2.13;;;;;;;;;;5051440;28;20037;-58
2023/09/21 07:02:53;;;;;;;3.63;2.20;;;;;;;;;;5050137;28;20171;-58
2023/09/21 07:05:19;;;;;;;2.72;2.03;;;;;;;;;;5051287;28;20105;-57
2023/09/21 07:07:45;;;;;;;3.75;2.10;;;;;;;;;;5050019;28;20707;-54
2023/09/21 07:10:11;;;;;;;3.63;2.00;;;;;;;;;;5040946;28;20029;-57
2023/09/21 07:12:39;;;;;;;2.72;1.95;;;;;;;;;;5045070;28;20445;-57
2023/09/21 07:15:07;;;;;;;4.68;2.05;;;;;;;;;;5051353;28;20040;-51
2023/09/21 07:17:33;;;;;;;4.88;1.83;;;;;;;;;;5047471;28;20063;-59
2023/09/21 07:19:59;;;;;;;3.67;2.20;;;;;;;;;;5051069;28;20033;-55
2023/09/21 07:22:24;;;;;;;6.03;2.10;;;;;;;;;;5050414;28;20029;-63
2023/09/21 07:24:50;;;;;;;3.70;2.13;;;;;;;;;;5047996;28;20029;-57
2023/09/21 07:27:16;;;;;;;4.72;2.22;;;;;;;;;;5050182;28;20033;-55
2023/09/21 07:29:41;;;;;;;3.58;2.00;;;;;;;;;;5037028;28;20390;-55
2023/09/21 07:32:10;;;;;;;6.07;2.30;;;;;;;;;;5051117;28;20029;-57
2023/09/21 07:34:36;;;;;;;5.60;2.25;;;;;;;;;;5049606;28;20032;-58
2023/09/21 07:37:02;;;;;;;5.25;2.30;;;;;;;;;;5052160;28;20041;-59
2023/09/21 07:39:28;;;;;;;4.97;2.30;;;;;;;;;;5049433;28;20199;-59
2023/09/21 07:41:54;;;;;;;3.70;1.90;;;;;;;;;;5051259;28;20407;-54
2023/09/21 07:44:22;;;;;;;5.82;2.05;;;;;;;;;;5051279;28;20064;-54
2023/09/21 07:46:49;;;;;;;5.53;2.10;;;;;;;;;;5050649;28;20080;-56
2023/09/21 07:49:15;;;;;;;3.90;2.00;;;;;;;;;;5049982;28;20056;-53
2023/09/21 07:51:41;;;;;;;4.75;2.22;;;;;;;;;;5050601;28;20052;-56
2023/09/21 07:54:06;;;;;;;4.28;2.15;;;;;;;;;;5051361;28;20033;-54
2023/09/21 07:56:32;;;;;;;8.93;2.42;;;;;;;;;;5046661;28;20044;-55
2023/09/21 07:58:58;;;;;;;5.93;2.35;;;;;;;;;;5038023;28;20029;-57
2023/09/21 08:01:26;;;;;;;6.63;2.30;;;;;;;;;;5033733;28;20409;-57
2023/09/21 08:03:52;;;;;;;5.82;2.10;;;;;;;;;;5048951;28;20039;-56
2023/09/21 08:06:19;;;;;;;4.57;2.20;;;;;;;;;;5049261;28;20029;-57
2023/09/21 08:08:46;;;;;;;3.63;1.92;;;;;;;;;;5049956;28;20037;-56
2023/09/21 08:11:11;;;;;;;5.10;2.10;;;;;;;;;;5051615;28;20025;-55
2023/09/21 08:13:38;;;;;;;3.83;2.00;;;;;;;;;;5030580;28;20386;-58
2023/09/21 08:16:03;;;;;;;4.97;2.10;;;;;;;;;;5031353;28;20057;-58
2023/09/21 08:18:29;;;;;;;6.32;2.00;;;;;;;;;;5045138;28;20072;-56
2023/09/21 08:20:55;;;;;;;6.70;2.20;;;;;;;;;;5050524;28;20677;-56
2023/09/21 08:23:21;;;;;;;5.07;2.20;;;;;;;;;;5042258;28;20033;-58
2023/09/21 08:25:46;;;;;;;4.20;1.90;;;;;;;;;;5041532;28;20059;-59
2023/09/21 08:28:12;;;;;;;3.13;1.90;;;;;;;;;;5048949;28;20143;-54
2023/09/21 08:30:38;;;;;;;3.72;2.25;;;;;;;;;;5033407;28;20037;-52
2023/09/21 08:33:07;;;;;;;4.18;2.40;;;;;;;;;;5044430;28;20029;-55
2023/09/21 08:35:33;;;;;;;4.43;2.13;;;;;;;;;;5050447;28;20032;-54
2023/09/21 08:37:59;;;;;;;5.13;2.05;;;;;;;;;;5050888;28;20175;-55
2023/09/21 08:40:25;;;;;;;4.15;2.53;;;;;;;;;;5039726;28;20041;-54
2023/09/21 08:42:55;;;;;;;3.15;2.00;;;;;;;;;;5041345;28;20037;-59
2023/09/21 08:45:22;;;;;;;;;;;;;;;;;;5051468;28;20048;-59
2023/09/21 08:47:48;;;;;;;5.55;2.40;;;;;;;;;;5048009;28;19921;-55
2023/09/21 08:50:14;;;;;;;2.47;1.90;;;;;;;;;;5050514;28;20079;-57
2023/09/21 08:52:44;;;;;;;4.45;2.40;;;;;;;;;;5049696;28;20033;-58
2023/09/21 08:55:11;;;;;;;3.95;2.20;;;;;;;;;;5049743;28;20470;-56
2023/09/21 08:57:37;;;;;;;4.13;2.40;;;;;;;;;;5049678;28;20112;-55
2023/09/21 09:00:08;;;;;;;3.67;2.10;;;;;;;;;;5049878;28;20037;-55
2023/09/21 09:02:37;;;;;;;4.38;2.00;;;;;;;;;;5048828;28;20060;-56
2023/09/21 09:05:07;;;;;;;4.45;2.10;;;;;;;;;;5049343;28;20040;-56
2023/09/21 09:07:40;;;;;;;3.75;2.03;;;;;;;;;;5047231;28;20056;-57
2023/09/21 09:10:10;;;;;;;4.38;1.90;;;;;;;;;;5053211;28;20039;-55
2023/09/21 09:12:35;;;;;;;3.30;2.00;;;;;;;;;;5049289;28;20032;-57
2023/09/21 09:15:03;;;;;;;4.53;2.30;;;;;;;;;;5052285;28;20037;-57
2023/09/21 09:17:36;;;;;;;3.08;1.90;;;;;;;;;;5052778;28;20040;-58
2023/09/21 09:20:06;;;;;;;7.05;2.00;;;;;;;;;;5054378;28;20037;-56
2023/09/21 09:22:34;;;;;;;6.38;2.15;;;;;;;;;;5053978;28;20035;-58
2023/09/21 09:25:05;;;;;;;5.75;1.90;;;;;;;;;;5052834;28;20037;-57
2023/09/21 09:27:30;;;;;;;;;;;;;;;;;;5054822;28;20040;-55
2023/09/21 09:29:57;;;;;;;5.65;1.92;;;;;;;;;;5053098;28;20326;-57
2023/09/21 09:32:23;;;;;;;3.08;1.90;;;;;;;;;;5046860;28;20091;-59
2023/09/21 09:34:49;;;;;;;5.25;2.03;;;;;;;;;;5052105;28;20031;-58
2023/09/21 09:37:16;;;;;;;4.32;2.08;;;;;;;;;;5052783;28;20123;-58
2023/09/21 09:39:43;;;;;;;3.10;1.92;;;;;;;;;;5051807;28;20094;-60
2023/09/21 09:42:10;;;;;;;3.80;2.00;;;;;;;;;;5052089;28;20477;-57
2023/09/21 09:44:46;;;;;;;4.57;1.80;;;;;;;;;;5053082;28;20166;-59
2023/09/21 09:47:16;;;;;;;4.63;1.90;;;;;;;;;;5053721;28;20067;-57
2023/09/21 09:49:44;;;;;;;4.97;1.92;;;;;;;;;;5031797;28;20033;-58
2023/09/21 09:52:13;;;;;;;4.47;1.90;;;;;;;;;;5042815;28;20067;-60
2023/09/21 09:54:39;;;;;;;2.38;1.80;;;;;;;;;;5052378;28;20071;-60
2023/09/21 09:57:13;;;;;;;2.45;1.75;;;;;;;;;;5052521;28;20465;-59
2023/09/21 09:59:40;;;;;;;3.92;2.08;;;;;;;;;;5053038;28;20059;-59
2023/09/21 10:02:09;;;;;;;2.38;1.70;;;;;;;;;;5053311;28;20024;-57
2023/09/21 10:04:36;;;;;;;4.82;1.90;;;;;;;;;;5050472;28;20462;-59
2023/09/21 10:07:03;;;;;;;4.30;1.98;;;;;;;;;;5040318;28;20095;-58
2023/09/21 10:09:29;;;;;;;1.83;1.60;;;;;;;;;;5051336;28;20055;-60
2023/09/21 10:11:56;;;;;;;3.38;1.70;;;;;;;;;;5049135;28;20560;-60
2023/09/21 10:14:23;;;;;;;5.13;1.83;;;;;;;;;;5051292;28;20041;-59
2023/09/21 10:16:56;;;;;;;3.42;1.80;;;;;;;;;;5050527;28;20052;-59
2023/09/21 10:19:26;;;;;;;4.63;2.00;;;;;;;;;;5050170;28;20069;-59
2023/09/21 10:22:08;;;;;;;3.72;1.85;;;;;;;;;;5049295;28;20090;-59
2023/09/21 10:24:36;;;;;;;5.05;2.00;;;;;;;;;;5053269;28;20040;-59
2023/09/21 10:27:04;;;;;;;2.67;1.90;;;;;;;;;;5052328;28;20465;-58
2023/09/21 10:29:38;;;;;;;2.97;2.10;;;;;;;;;;5052681;28;20017;-58
2023/09/21 10:32:07;;;;;;;4.57;1.92;;;;;;;;;;5051160;28;20545;-61
2023/09/21 10:34:32;;;;;;;3.50;1.90;;;;;;;;;;5053019;28;20032;-59
2023/09/21 10:37:01;;;;;;;3.88;1.90;;;;;;;;;;5051915;28;20028;-58
2023/09/21 10:39:30;;;;;;;4.40;2.10;;;;;;;;;;5051376;28;20037;-59
2023/09/21 10:42:16;;;;;;;6.10;2.20;;;;;;;;;;5049447;28;20033;-59
2023/09/21 10:44:58;;;;;;;5.53;2.00;;;;;;;;;;5051814;28;20028;-59
2023/09/21 10:47:31;;;;;;;3.30;2.20;;;;;;;;;;5052628;28;20032;-60
2023/09/21 10:50:06;;;;;;;3.22;1.90;;;;;;;;;;5050126;28;20060;-59
2023/09/21 10:52:32;;;;;;;2.75;1.90;;;;;;;;;;5051267;28;20470;-59
2023/09/21 10:54:58;;;;;;;3.30;1.98;;;;;;;;;;5051867;28;20469;-60
2023/09/21 10:57:29;;;;;;;3.25;1.77;;;;;;;;;;5041756;28;20478;-59
2023/09/21 10:59:56;;;;;;;3.42;2.03;;;;;;;;;;5048714;28;20039;-57
2023/09/21 11:02:22;;;;;;;5.40;1.92;;;;;;;;;;5052477;28;20087;-60
2023/09/21 11:04:48;;;;;;;5.40;2.10;;;;;;;;;;5051461;28;20025;-60
2023/09/21 11:07:16;;;;;;;4.32;2.20;;;;;;;;;;5050550;28;20124;-60
2023/09/21 11:09:48;;;;;;;2.72;1.77;;;;;;;;;;5046014;28;20037;-60
2023/09/21 11:12:14;;;;;;;4.82;2.10;;;;;;;;;;5050588;28;20047;-60
2023/09/21 11:14:48;;;;;;;3.60;2.03;;;;;;;;;;5052130;28;20025;-60
2023/09/21 11:17:18;;;;;;;4.30;1.92;;;;;;;;;;5052290;28;20068;-60
2023/09/21 11:19:45;;;;;;;3.20;2.00;;;;;;;;;;5032472;28;20041;-59
2023/09/21 11:22:12;;;;;;;4.38;1.90;;;;;;;;;;5050410;28;20438;-59
2023/09/21 11:24:39;;;;;;;3.20;1.90;;;;;;;;;;5051829;28;20033;-60
2023/09/21 11:27:06;;;;;;;5.88;2.08;;;;;;;;;;5051311;28;20070;-60
2023/09/21 11:29:34;;;;;;;4.25;2.17;;;;;;;;;;5051783;28;20032;-59
2023/09/21 11:32:00;;;;;;;4.20;2.05;;;;;;;;;;5049203;28;20682;-60
2023/09/21 11:34:26;;;;;;;4.25;1.92;;;;;;;;;;5051887;28;20044;-60
2023/09/21 11:36:52;;;;;;;4.80;2.00;;;;;;;;;;5035607;28;20034;-61
2023/09/21 11:39:22;;;;;;;4.00;2.03;;;;;;;;;;5048305;28;20033;-61
2023/09/21 11:41:51;;;;;;;3.47;2.20;;;;;;;;;;5050635;28;20044;-61
2023/09/21 11:44:17;;;;;;;3.63;2.13;;;;;;;;;;5033841;28;20041;-61
2023/09/21 11:46:44;;;;;;;5.85;2.20;;;;;;;;;;5050182;28;20447;-62
2023/09/21 11:49:10;;;;;;;8.05;2.35;;;;;;;;;;5050196;28;20029;-61
2023/09/21 11:51:36;;;;;;;2.90;2.10;;;;;;;;;;5050127;28;20397;-61
2023/09/21 11:54:04;;;;;;;6.15;2.28;;;;;;;;;;5044371;28;20025;-60
2023/09/21 11:56:30;;;;;;;6.82;2.17;;;;;;;;;;5051492;28;20473;-60
2023/09/21 11:58:58;;;;;;;5.85;2.40;;;;;;;;;;5051078;28;20025;-62
2023/09/21 12:01:29;;;;;;;4.40;2.17;;;;;;;;;;5051360;28;20057;-62
2023/09/21 12:03:56;;;;;;;4.63;2.13;;;;;;;;;;5043359;28;20037;-61
2023/09/21 12:06:27;;;;;;;4.60;2.20;;;;;;;;;;5039519;28;20456;-62
2023/09/21 12:08:53;;;;;;;5.28;2.17;;;;;;;;;;5050821;28;20036;-60
2023/09/21 12:11:21;;;;;;;3.80;2.13;;;;;;;;;;5050855;28;20397;-62
2023/09/21 12:13:46;;;;;;;3.47;2.00;;;;;;;;;;5049525;28;20399;-60
2023/09/21 12:16:12;;;;;;;3.83;2.10;;;;;;;;;;5049485;28;20063;-60
2023/09/21 12:18:37;;;;;;;4.47;2.22;;;;;;;;;;5048417;28;20041;-60
2023/09/21 12:21:03;;;;;;;3.80;2.15;;;;;;;;;;5049557;28;20656;-60
2023/09/21 12:23:29;;;;;;;4.35;2.20;;;;;;;;;;5050352;28;20037;-60
2023/09/21 12:25:54;;;;;;;3.40;2.10;;;;;;;;;;5050359;28;20033;-60
2023/09/21 12:28:20;;;;;;;4.20;2.20;;;;;;;;;;5051556;28;20466;-60
2023/09/21 12:30:48;;;;;;;3.75;2.10;;;;;;;;;;5050300;28;20060;-60
2023/09/21 12:33:15;;;;;;;6.15;2.25;;;;;;;;;;5050144;28;20130;-62
2023/09/21 12:35:41;;;;;;;4.65;2.00;;;;;;;;;;5049459;28;20044;-59
2023/09/21 12:38:07;;;;;;;3.05;2.00;;;;;;;;;;5025110;28;20520;-61
2023/09/21 12:40:32;;;;;;;3.58;2.42;;;;;;;;;;5032268;28;20112;-60
2023/09/21 12:42:58;;;;;;;4.75;2.53;;;;;;;;;;5050334;28;20116;-59
2023/09/21 12:45:24;;;;;;;3.95;2.13;;;;;;;;;;5053796;28;20021;-61
2023/09/21 12:47:49;;;;;;;2.70;2.00;;;;;;;;;;5053062;28;20079;-61
2023/09/21 12:50:16;;;;;;;4.63;2.10;;;;;;;;;;5053741;28;20040;-60
2023/09/21 12:52:42;;;;;;;5.20;2.10;;;;;;;;;;5054293;28;20040;-59
2023/09/21 12:55:11;;;;;;;4.85;2.17;;;;;;;;;;5052975;28;20063;-60
2023/09/21 12:57:40;;;;;;;3.00;1.95;;;;;;;;;;5052028;28;20335;-60
2023/09/21 13:00:17;;;;;;;3.35;2.17;;;;;;;;;;5032333;28;20038;-61
2023/09/21 13:02:43;;;;;;;3.63;2.00;;;;;;;;;;5049130;28;20043;-61
2023/09/21 13:05:12;;;;;;;4.72;2.20;;;;;;;;;;5034653;28;20030;-60
2023/09/21 13:07:41;;;;;;;3.40;2.10;;;;;;;;;;5049314;28;20124;-61
2023/09/21 13:10:08;;;;;;;7.13;2.30;;;;;;;;;;5054554;28;20033;-60
2023/09/21 13:12:35;;;;;;;5.20;2.22;;;;;;;;;;5052774;28;20043;-60
2023/09/21 13:15:01;;;;;;;4.53;2.30;;;;;;;;;;5051507;28;20059;-60
2023/09/21 13:17:27;;;;;;;4.00;2.28;;;;;;;;;;5053927;28;20405;-60
2023/09/21 13:19:54;;;;;;;4.03;2.10;;;;;;;;;;5053543;28;20055;-59
2023/09/21 13:22:20;;;;;;;5.68;2.30;;;;;;;;;;5052671;28;20108;-59
2023/09/21 13:24:46;;;;;;;4.32;2.17;;;;;;;;;;5053359;28;20052;-59
2023/09/21 13:27:13;;;;;;;4.90;2.40;;;;;;;;;;5052983;28;20037;-62
2023/09/21 13:29:39;;;;;;;7.80;2.42;;;;;;;;;;5052791;28;20053;-59
2023/09/21 13:32:05;;;;;;;6.10;2.20;;;;;;;;;;5051095;28;20143;-61
2023/09/21 13:34:30;;;;;;;3.58;2.10;;;;;;;;;;5052081;28;20136;-60
2023/09/21 13:36:56;;;;;;;3.97;2.17;;;;;;;;;;5052865;28;20159;-60
2023/09/21 13:39:22;;;;;;;6.72;2.40;;;;;;;;;;5054124;28;20462;-60
2023/09/21 13:41:53;;;;;;;4.32;2.22;;;;;;;;;;5049819;28;20025;-59
2023/09/21 13:44:20;;;;;;;;;;;;;;;;;;5054718;28;20571;-60
2023/09/21 13:46:45;;;;;;;4.43;2.50;;;;;;;;;;5050548;28;19952;-56
2023/09/21 13:49:11;;;;;;;4.30;2.40;;;;;;;;;;5034934;28;20033;-59
2023/09/21 13:51:37;;;;;;;4.88;2.20;;;;;;;;;;5045349;28;20024;-58
2023/09/21 13:54:05;;;;;;;4.50;2.33;;;;;;;;;;5035257;28;20112;-57
2023/09/21 13:56:31;;;;;;;5.95;2.67;;;;;;;;;;5053597;28;20075;-58
2023/09/21 13:58:56;;;;;;;4.88;2.33;;;;;;;;;;5053034;28;20021;-58
2023/09/21 14:01:24;;;;;;;3.20;2.25;;;;;;;;;;5052634;28;20040;-60
2023/09/21 14:03:50;;;;;;;5.45;2.58;;;;;;;;;;5052857;28;20029;-59
2023/09/21 14:06:19;;;;;;;5.22;2.50;;;;;;;;;;5049659;28;20038;-60
2023/09/21 14:08:44;;;;;;;5.28;2.33;;;;;;;;;;5052042;28;20037;-59
2023/09/21 14:11:10;;;;;;;5.75;2.30;;;;;;;;;;5052324;28;20021;-60
2023/09/21 14:13:36;;;;;;;3.58;2.33;;;;;;;;;;5053510;28;20090;-57
2023/09/21 14:16:03;;;;;;;4.13;2.13;;;;;;;;;;5051357;28;20033;-56
2023/09/21 14:18:29;;;;;;;7.15;2.42;;;;;;;;;;5051958;28;20072;-57
2023/09/21 14:20:57;;;;;;;5.13;2.40;;;;;;;;;;5048764;28;20516;-59
2023/09/21 14:23:23;;;;;;;5.25;2.30;;;;;;;;;;5051536;28;20044;-60
2023/09/21 14:25:48;;;;;;;4.65;2.45;;;;;;;;;;5051067;28;20029;-60
2023/09/21 14:28:14;;;;;;;4.65;2.58;;;;;;;;;;5051360;28;20028;-58
2023/09/21 14:30:39;;;;;;;4.70;2.35;;;;;;;;;;5046814;28;20053;-58
2023/09/21 14:33:08;;;;;;;5.07;2.28;;;;;;;;;;5051366;28;20036;-58
2023/09/21 14:35:34;;;;;;;4.65;2.30;;;;;;;;;;5050783;28;20036;-57
2023/09/21 14:38:01;;;;;;;3.92;2.40;;;;;;;;;;5046331;28;20124;-60
2023/09/21 14:40:28;;;;;;;5.80;2.40;;;;;;;;;;5042741;28;20037;-59
2023/09/21 14:42:53;;;;;;;6.68;2.60;;;;;;;;;;5044360;28;20102;-57